createdAt,value
2023-05-12T00:00:13.155Z,8.47
2023-05-12T00:03:04.387Z,8.20
2023-05-12T00:05:31.407Z,7.40
2023-05-12T00:07:58.453Z,7.43
2023-05-12T00:10:27.358Z,8.00
2023-05-12T00:12:55.679Z,8.03
2023-05-12T00:15:22.797Z,7.90
2023-05-12T00:17:50.792Z,7.30
2023-05-12T00:20:17.854Z,7.63
2023-05-12T00:22:45.056Z,7.47
2023-05-12T00:25:11.784Z,7.50
2023-05-12T00:27:38.749Z,7.47
2023-05-12T00:30:06.932Z,6.87
2023-05-12T00:32:34.023Z,7.00
2023-05-12T00:35:00.947Z,7.43
2023-05-12T00:37:28.424Z,6.63
2023-05-12T00:39:55.426Z,7.43
2023-05-12T00:42:22.417Z,7.30
2023-05-12T00:44:49.105Z,7.03
2023-05-12T00:47:16.609Z,7.10
2023-05-12T00:49:43.562Z,7.33
2023-05-12T00:52:10.688Z,7.57
2023-05-12T00:54:39.970Z,7.67
2023-05-12T00:57:07.091Z,6.83
2023-05-12T00:59:34.374Z,6.97
2023-05-12T01:02:01.927Z,6.80
2023-05-12T01:04:29.871Z,6.43
2023-05-12T01:07:02.689Z,7.63
2023-05-12T01:09:29.441Z,7.37
2023-05-12T01:11:57.484Z,8.40
2023-05-12T01:14:24.335Z,8.07
2023-05-12T01:16:54.312Z,8.00
2023-05-12T01:19:41.731Z,7.57
2023-05-12T01:22:11.294Z,8.07
2023-05-12T01:25:12.171Z,7.57
2023-05-12T01:27:41.235Z,7.60
2023-05-12T01:30:11.123Z,7.60
2023-05-12T01:32:38.731Z,7.80
2023-05-12T01:35:07.161Z,7.70
2023-05-12T01:37:35.965Z,8.07
2023-05-12T01:40:05.128Z,7.93
2023-05-12T01:42:32.719Z,8.17
2023-05-12T01:44:59.447Z,8.30
2023-05-12T01:47:27.509Z,7.87
2023-05-12T01:50:04.314Z,7.63
2023-05-12T01:52:31.653Z,8.00
2023-05-12T01:54:58.493Z,8.03
2023-05-12T01:57:27.270Z,7.77
2023-05-12T01:59:57.944Z,6.90
2023-05-12T02:02:25.182Z,8.50
2023-05-12T02:04:52.286Z,7.37
2023-05-12T02:07:19.457Z,8.80
2023-05-12T02:09:46.315Z,8.87
2023-05-12T02:12:14.054Z,8.13
2023-05-12T02:14:40.856Z,8.40
2023-05-12T02:17:08.068Z,7.53
2023-05-12T02:19:34.836Z,7.63
2023-05-12T02:22:01.881Z,7.77
2023-05-12T02:24:28.734Z,8.00
2023-05-12T02:26:55.772Z,7.67
2023-05-12T02:29:23.085Z,7.37
2023-05-12T02:31:50.203Z,8.20
2023-05-12T02:34:17.679Z,6.53
2023-05-12T02:36:44.741Z,7.70
2023-05-12T02:39:12.114Z,7.73
2023-05-12T02:41:39.590Z,7.43
2023-05-12T02:44:06.598Z,7.67
2023-05-12T02:46:33.632Z,8.50
2023-05-12T02:49:00.389Z,8.50
2023-05-12T02:51:27.439Z,7.90
2023-05-12T02:53:54.192Z,8.17
2023-05-12T02:56:22.430Z,8.10
2023-05-12T02:58:49.245Z,8.47
2023-05-12T03:01:16.619Z,7.80
2023-05-12T03:03:43.597Z,7.70
2023-05-12T03:06:11.107Z,8.60
2023-05-12T03:08:37.898Z,7.97
2023-05-12T03:11:05.524Z,7.20
2023-05-12T03:13:32.271Z,7.27
2023-05-12T03:16:01.540Z,7.67
2023-05-12T03:18:29.360Z,6.97
2023-05-12T03:20:56.478Z,7.20
2023-05-12T03:23:24.870Z,7.83
2023-05-12T03:25:51.881Z,7.80
2023-05-12T03:28:18.641Z,7.77
2023-05-12T03:30:45.853Z,8.13
2023-05-12T03:33:12.569Z,8.03
2023-05-12T03:35:39.973Z,7.57
2023-05-12T03:38:06.757Z,7.77
2023-05-12T03:40:33.807Z,7.53
2023-05-12T03:43:00.495Z,9.10
2023-05-12T03:45:27.633Z,8.53
2023-05-12T03:47:54.418Z,9.20
2023-05-12T03:50:21.656Z,7.70
2023-05-12T03:52:48.551Z,7.57
2023-05-12T03:55:15.640Z,8.50
2023-05-12T03:57:42.901Z,8.07
2023-05-12T04:00:10.537Z,9.00
2023-05-12T04:02:43.502Z,8.23
2023-05-12T04:05:10.941Z,9.37
2023-05-12T04:07:38.255Z,8.50
2023-05-12T04:10:05.722Z,7.93
2023-05-12T04:12:32.732Z,8.60
2023-05-12T04:15:00.374Z,8.27
2023-05-12T04:17:27.425Z,8.53
2023-05-12T04:19:54.530Z,8.03
2023-05-12T04:22:22.307Z,8.77
2023-05-12T04:24:51.517Z,8.13
2023-05-12T04:27:18.576Z,8.53
2023-05-12T04:29:45.754Z,8.77
2023-05-12T04:32:12.711Z,8.00
2023-05-12T04:34:39.891Z,9.63
2023-05-12T04:37:07.200Z,8.87
2023-05-12T04:39:34.712Z,9.70
2023-05-12T04:42:02.345Z,10.20
2023-05-12T04:44:32.401Z,10.27
2023-05-12T04:47:00.285Z,9.20
2023-05-12T04:49:27.311Z,10.87
2023-05-12T04:51:54.217Z,9.30
2023-05-12T04:54:21.883Z,9.63
2023-05-12T04:56:48.611Z,8.23
2023-05-12T04:59:15.984Z,7.40
2023-05-12T05:01:44.059Z,6.60
2023-05-12T05:04:11.178Z,6.37
2023-05-12T05:06:38.005Z,5.83
2023-05-12T05:09:05.818Z,5.60
2023-05-12T05:11:32.870Z,6.97
2023-05-12T05:13:59.977Z,5.55
2023-05-12T05:16:26.849Z,5.53
2023-05-12T05:18:54.019Z,6.13
2023-05-12T05:21:20.969Z,5.32
2023-05-12T05:23:47.977Z,5.55
2023-05-12T05:26:15.248Z,5.60
2023-05-12T05:28:42.550Z,4.80
2023-05-12T05:31:16.065Z,4.97
2023-05-12T05:33:44.359Z,5.13
2023-05-12T05:36:11.197Z,4.45
2023-05-12T05:38:38.512Z,4.53
2023-05-12T05:41:06.202Z,4.18
2023-05-12T05:43:33.227Z,4.30
2023-05-12T05:46:00.183Z,4.60
2023-05-12T05:48:27.711Z,4.70
2023-05-12T05:50:55.129Z,4.47
2023-05-12T05:53:23.984Z,3.92
2023-05-12T05:55:51.815Z,4.07
2023-05-12T05:58:18.811Z,4.35
2023-05-12T06:00:46.714Z,4.00
2023-05-12T06:03:13.924Z,3.85
2023-05-12T06:05:43.139Z,4.20
2023-05-12T06:08:13.337Z,5.03
2023-05-12T06:10:41.064Z,4.28
2023-05-12T06:13:08.333Z,4.45
2023-05-12T06:15:35.752Z,4.10
2023-05-12T06:18:02.828Z,4.15
2023-05-12T06:20:30.249Z,3.85
2023-05-12T06:22:57.282Z,3.50
2023-05-12T06:25:24.046Z,4.10
2023-05-12T06:27:52.753Z,3.70
2023-05-12T06:30:19.673Z,3.50
2023-05-12T06:32:46.835Z,3.75
2023-05-12T06:35:13.596Z,3.95
2023-05-12T06:37:40.641Z,4.03
2023-05-12T06:40:07.938Z,3.75
2023-05-12T06:42:34.901Z,4.00
2023-05-12T06:45:09.495Z,3.70
2023-05-12T06:47:36.649Z,3.75
2023-05-12T06:50:03.499Z,3.70
2023-05-12T06:52:30.491Z,3.88
2023-05-12T06:54:57.192Z,3.45
2023-05-12T06:57:26.386Z,4.00
2023-05-12T06:59:53.194Z,3.67
2023-05-12T07:02:20.228Z,3.70
2023-05-12T07:04:47.257Z,3.20
2023-05-12T07:07:14.230Z,3.70
2023-05-12T07:09:42.385Z,3.88
2023-05-12T07:12:09.546Z,4.38
2023-05-12T07:14:36.278Z,3.80
2023-05-12T07:17:04.033Z,3.83
2023-05-12T07:19:30.803Z,3.22
2023-05-12T07:21:58.711Z,3.13
2023-05-12T07:24:25.627Z,3.30
2023-05-12T07:26:52.603Z,3.42
2023-05-12T07:29:19.373Z,3.65
2023-05-12T07:31:46.531Z,3.60
2023-05-12T07:34:13.509Z,3.38
2023-05-12T07:36:40.478Z,3.13
2023-05-12T07:39:07.217Z,3.58
2023-05-12T07:41:34.566Z,3.05
2023-05-12T07:44:02.270Z,3.05
2023-05-12T07:46:29.344Z,3.55
2023-05-12T07:48:56.075Z,3.53
2023-05-12T07:51:23.144Z,3.22
2023-05-12T07:53:49.900Z,2.97
2023-05-12T07:56:16.914Z,3.45
2023-05-12T07:58:45.322Z,3.10
2023-05-12T08:01:13.877Z,3.03
2023-05-12T08:03:40.723Z,2.88
2023-05-12T08:06:07.748Z,2.78
2023-05-12T08:08:34.945Z,3.70
2023-05-12T08:11:02.171Z,2.60
2023-05-12T08:13:28.867Z,3.35
2023-05-12T08:15:55.870Z,4.03
2023-05-12T08:18:22.821Z,2.92
2023-05-12T08:20:50.287Z,5.13
2023-05-12T08:23:17.593Z,3.38
2023-05-12T08:25:44.744Z,2.38
2023-05-12T08:28:12.902Z,3.53
2023-05-12T08:30:40.767Z,2.45
2023-05-12T08:33:07.789Z,2.28
2023-05-12T08:35:35.741Z,2.17
2023-05-12T08:38:03.163Z,1.80
2023-05-12T08:40:34.121Z,2.50
2023-05-12T08:43:25.066Z,2.13
2023-05-12T08:45:59.147Z,3.85
2023-05-12T08:48:27.897Z,2.63
2023-05-12T08:50:55.635Z,2.50
2023-05-12T08:53:24.045Z,1.88
2023-05-12T08:57:09.042Z,3.17
2023-05-12T08:58:42.151Z,2.33
2023-05-12T09:01:11.963Z,2.75
2023-05-12T09:03:39.169Z,2.33
2023-05-12T09:06:08.130Z,3.10
2023-05-12T09:08:36.652Z,2.38
2023-05-12T09:11:03.770Z,2.63
2023-05-12T09:13:48.100Z,3.15
2023-05-12T09:16:19.228Z,2.33
2023-05-12T09:18:54.275Z,2.70
2023-05-12T09:21:22.042Z,3.00
2023-05-12T09:24:05.927Z,2.40
2023-05-12T09:26:49.375Z,2.42
2023-05-12T09:29:27.741Z,2.22
2023-05-12T09:31:59.489Z,2.03
2023-05-12T09:34:38.585Z,2.47
2023-05-12T09:37:07.030Z,2.65
2023-05-12T09:39:34.424Z,2.20
2023-05-12T09:42:01.478Z,2.33
2023-05-12T09:44:31.219Z,2.67
2023-05-12T09:47:07.071Z,2.70
2023-05-12T09:49:33.786Z,2.42
2023-05-12T09:52:00.843Z,2.70
2023-05-12T09:54:29.357Z,2.70
2023-05-12T09:57:04.896Z,2.40
2023-05-12T09:59:36.584Z,2.45
2023-05-12T10:02:07.405Z,2.70
2023-05-12T10:04:50.990Z,2.13
2023-05-12T10:07:22.637Z,2.30
2023-05-12T10:09:49.915Z,3.03
2023-05-12T10:12:17.148Z,2.30
2023-05-12T10:14:44.142Z,2.20
2023-05-12T10:17:12.554Z,2.40
2023-05-12T10:19:41.997Z,3.35
2023-05-12T10:22:14.187Z,2.28
2023-05-12T10:24:41.346Z,1.85
2023-05-12T10:27:08.682Z,2.88
2023-05-12T10:29:36.741Z,1.90
2023-05-12T10:32:04.082Z,2.83
2023-05-12T10:34:35.071Z,2.10
2023-05-12T10:37:08.156Z,2.50
2023-05-12T10:39:35.033Z,2.55
2023-05-12T10:42:09.080Z,2.25
2023-05-12T10:44:36.740Z,2.42
2023-05-12T10:47:14.230Z,2.58
2023-05-12T10:49:41.740Z,2.50
2023-05-12T10:52:11.772Z,2.28
2023-05-12T10:54:44.722Z,2.65
2023-05-12T10:57:17.129Z,2.70
2023-05-12T10:59:56.292Z,2.55
2023-05-12T11:02:29.165Z,2.40
2023-05-12T11:05:01.864Z,2.13
2023-05-12T11:07:32.854Z,2.75
2023-05-12T11:10:02.228Z,2.50
2023-05-12T11:12:35.287Z,2.63
2023-05-12T11:15:03.568Z,2.30
2023-05-12T11:17:30.829Z,3.25
2023-05-12T11:19:58.088Z,2.50
2023-05-12T11:22:25.276Z,3.08
2023-05-12T11:24:53.165Z,3.03
2023-05-12T11:27:22.846Z,2.67
2023-05-12T11:30:00.990Z,3.15
2023-05-12T11:32:29.486Z,3.13
2023-05-12T11:34:56.667Z,2.30
2023-05-12T11:37:23.772Z,2.97
2023-05-12T11:39:52.892Z,2.78
2023-05-12T11:42:21.166Z,3.22
2023-05-12T11:44:50.483Z,2.50
2023-05-12T11:47:19.704Z,2.45
2023-05-12T11:49:51.390Z,2.67
2023-05-12T11:52:20.038Z,2.25
2023-05-12T11:54:51.553Z,3.28
2023-05-12T11:57:32.819Z,3.42
2023-05-12T12:00:02.830Z,3.10
2023-05-12T12:02:33.522Z,2.28
2023-05-12T12:05:00.798Z,2.65
2023-05-12T12:07:36.067Z,2.70
2023-05-12T12:10:17.692Z,2.38
2023-05-12T12:12:46.054Z,2.70
2023-05-12T12:15:13.139Z,2.90
2023-05-12T12:17:40.622Z,2.60
2023-05-12T12:20:09.100Z,2.75
2023-05-12T12:22:36.455Z,2.13
2023-05-12T12:25:04.003Z,2.10
2023-05-12T12:27:31.119Z,2.45
2023-05-12T12:29:57.885Z,2.05
2023-05-12T12:32:25.173Z,2.33
2023-05-12T12:34:52.780Z,2.53
2023-05-12T12:37:19.844Z,3.08
2023-05-12T12:39:47.937Z,2.30
2023-05-12T12:42:15.650Z,1.77
2023-05-12T12:44:42.839Z,1.88
2023-05-12T12:47:10.165Z,2.22
2023-05-12T12:49:37.057Z,3.85
2023-05-12T12:52:04.464Z,2.35
2023-05-12T12:54:31.264Z,2.40
2023-05-12T12:56:58.442Z,2.38
2023-05-12T12:59:25.343Z,2.08
2023-05-12T13:01:52.845Z,2.20
2023-05-12T13:04:22.888Z,2.28
2023-05-12T13:06:50.064Z,2.55
2023-05-12T13:09:19.720Z,2.97
2023-05-12T13:11:47.871Z,2.25
2023-05-12T13:14:14.810Z,2.45
2023-05-12T13:16:42.680Z,2.75
2023-05-12T13:19:09.600Z,2.50
2023-05-12T13:21:37.227Z,2.20
2023-05-12T13:24:04.227Z,2.40
2023-05-12T13:26:31.236Z,2.50
2023-05-12T13:28:57.979Z,2.17
2023-05-12T13:31:25.959Z,2.92
2023-05-12T13:33:52.804Z,2.40
2023-05-12T13:36:19.825Z,2.70
2023-05-12T13:38:49.086Z,2.30
2023-05-12T13:41:16.114Z,2.67
2023-05-12T13:43:43.669Z,2.45
2023-05-12T13:46:10.912Z,2.60
2023-05-12T13:48:37.625Z,2.20
2023-05-12T13:51:04.886Z,2.35
2023-05-12T13:53:32.244Z,2.95
2023-05-12T13:56:15.313Z,2.20
2023-05-12T13:58:43.674Z,2.17
2023-05-12T14:01:11.717Z,2.80
2023-05-12T14:03:38.469Z,2.58
2023-05-12T14:06:05.649Z,2.38
2023-05-12T14:08:32.434Z,2.78
2023-05-12T14:10:59.599Z,2.47
2023-05-12T14:13:26.426Z,2.60
2023-05-12T14:15:54.134Z,2.28
2023-05-12T14:18:21.229Z,2.83
2023-05-12T14:20:48.578Z,2.22
2023-05-12T14:23:15.684Z,2.45
2023-05-12T14:25:42.896Z,2.05
2023-05-12T14:28:09.703Z,2.60
2023-05-12T14:30:37.454Z,2.70
2023-05-12T14:33:04.480Z,2.20
2023-05-12T14:35:32.296Z,2.55
2023-05-12T14:37:59.310Z,2.50
2023-05-12T14:40:27.252Z,1.98
2023-05-12T14:42:54.578Z,3.15
2023-05-12T14:45:22.144Z,2.60
2023-05-12T14:47:49.197Z,2.42
2023-05-12T14:50:18.300Z,2.85
2023-05-12T14:52:45.250Z,2.53
2023-05-12T14:55:12.601Z,1.80
2023-05-12T14:57:40.622Z,2.42
2023-05-12T15:00:10.774Z,2.30
2023-05-12T15:02:38.782Z,2.65
2023-05-12T15:05:07.565Z,2.20
2023-05-12T15:07:34.734Z,2.30
2023-05-12T15:10:01.839Z,2.90
2023-05-12T15:12:28.652Z,2.60
2023-05-12T15:15:01.348Z,1.90
2023-05-12T15:17:28.547Z,2.42
2023-05-12T15:19:55.936Z,2.70
2023-05-12T15:22:22.770Z,2.20
2023-05-12T15:24:49.810Z,2.25
2023-05-12T15:27:16.531Z,2.35
2023-05-12T15:29:43.600Z,2.53
2023-05-12T15:32:10.264Z,2.30
2023-05-12T15:34:37.286Z,2.33
2023-05-12T15:37:04.138Z,2.65
2023-05-12T15:39:31.587Z,2.10
2023-05-12T15:41:59.014Z,2.55
2023-05-12T15:44:26.037Z,2.75
2023-05-12T15:46:53.006Z,2.88
2023-05-12T15:49:20.311Z,2.22
2023-05-12T15:51:47.051Z,2.83
2023-05-12T15:54:14.206Z,2.40
2023-05-12T15:56:41.029Z,3.50
2023-05-12T15:59:08.003Z,3.35
2023-05-12T16:01:34.853Z,2.55
2023-05-12T16:04:02.031Z,2.70
2023-05-12T16:06:28.886Z,2.60
2023-05-12T16:08:55.925Z,2.35
2023-05-12T16:11:22.650Z,2.38
2023-05-12T16:13:52.528Z,3.08
2023-05-12T16:16:20.016Z,2.58
2023-05-12T16:18:47.415Z,2.28
2023-05-12T16:21:14.176Z,2.03
2023-05-12T16:23:41.239Z,2.00
2023-05-12T16:26:08.102Z,2.38
2023-05-12T16:28:35.463Z,2.35
2023-05-12T16:31:03.315Z,3.25
2023-05-12T16:33:30.653Z,2.78
2023-05-12T16:35:57.514Z,2.38
2023-05-12T16:38:24.526Z,2.80
2023-05-12T16:40:51.405Z,2.90
2023-05-12T16:43:18.479Z,2.38
2023-05-12T16:45:45.256Z,3.05
2023-05-12T16:48:12.512Z,3.17
2023-05-12T16:50:39.333Z,2.83
2023-05-12T16:53:06.569Z,3.00
2023-05-12T16:55:33.490Z,3.38
2023-05-12T16:58:01.538Z,2.67
2023-05-12T17:00:28.267Z,3.10
2023-05-12T17:02:55.350Z,2.78
2023-05-12T17:05:22.380Z,2.50
2023-05-12T17:07:49.803Z,3.22
2023-05-12T17:10:16.493Z,2.83
2023-05-12T17:12:43.553Z,2.80
2023-05-12T17:15:11.371Z,2.42
2023-05-12T17:17:38.459Z,3.85
2023-05-12T17:20:06.119Z,2.78
2023-05-12T17:22:37.006Z,2.88
2023-05-12T17:25:04.190Z,3.08
2023-05-12T17:27:31.299Z,2.70
2023-05-12T17:29:59.733Z,2.90
2023-05-12T17:32:27.054Z,3.10
2023-05-12T17:34:54.033Z,2.88
2023-05-12T17:37:21.111Z,2.50
2023-05-12T17:39:48.040Z,3.00
2023-05-12T17:42:15.101Z,2.80
2023-05-12T17:44:41.918Z,2.45
2023-05-12T17:47:13.176Z,2.92
2023-05-12T17:49:41.133Z,2.58
2023-05-12T17:52:08.703Z,2.40
2023-05-12T17:54:35.433Z,2.78
2023-05-12T17:57:03.172Z,3.35
2023-05-12T17:59:30.047Z,4.93
2023-05-12T18:01:57.103Z,5.45
2023-05-12T18:04:23.895Z,3.53
2023-05-12T18:06:51.294Z,2.78
2023-05-12T18:09:19.833Z,2.72
2023-05-12T18:11:50.048Z,2.80
2023-05-12T18:14:17.976Z,2.50
2023-05-12T18:16:45.107Z,2.50
2023-05-12T18:19:12.113Z,3.15
2023-05-12T18:21:39.242Z,4.13
2023-05-12T18:24:06.338Z,5.53
2023-05-12T18:26:33.432Z,6.22
2023-05-12T18:29:00.498Z,6.28
2023-05-12T18:31:27.787Z,6.70
2023-05-12T18:33:54.566Z,6.80
2023-05-12T18:36:21.622Z,7.22
2023-05-12T18:38:48.345Z,7.22
2023-05-12T18:41:15.729Z,13.57
2023-05-12T18:43:44.089Z,17.58
2023-05-12T18:46:11.772Z,22.60
2023-05-12T18:48:39.134Z,25.25
2023-05-12T18:51:06.502Z,28.55
2023-05-12T18:53:33.199Z,28.02
2023-05-12T18:56:00.391Z,30.73
2023-05-12T18:58:27.249Z,28.55
2023-05-12T19:00:54.314Z,27.15
2023-05-12T19:03:21.338Z,26.73
2023-05-12T19:05:49.072Z,18.10
2023-05-12T19:08:17.591Z,21.90
2023-05-12T19:10:45.317Z,15.80
2023-05-12T19:13:12.042Z,19.92
2023-05-12T19:15:39.337Z,19.77
2023-05-12T19:18:06.268Z,16.40
2023-05-12T19:20:33.562Z,18.08
2023-05-12T19:23:00.458Z,9.57
2023-05-12T19:25:27.519Z,16.70
2023-05-12T19:27:54.570Z,18.33
2023-05-12T19:30:21.581Z,17.73
2023-05-12T19:32:50.102Z,16.20
2023-05-12T19:35:17.276Z,17.83
2023-05-12T19:37:44.341Z,18.58
2023-05-12T19:40:11.679Z,21.08
2023-05-12T19:42:38.546Z,21.88
2023-05-12T19:45:06.255Z,13.18
2023-05-12T19:47:33.461Z,11.05
2023-05-12T19:50:01.016Z,9.05
2023-05-12T19:52:30.668Z,9.65
2023-05-12T19:54:57.842Z,10.43
2023-05-12T19:57:24.646Z,9.07
2023-05-12T19:59:51.769Z,9.85
2023-05-12T20:02:18.626Z,10.38
2023-05-12T20:04:45.906Z,9.10
2023-05-12T20:07:12.698Z,8.52
2023-05-12T20:09:39.812Z,8.43
2023-05-12T20:12:08.020Z,7.97
2023-05-12T20:14:35.677Z,7.70
2023-05-12T20:17:05.639Z,7.75
2023-05-12T20:19:33.700Z,8.23
2023-05-12T20:22:00.588Z,11.45
2023-05-12T20:24:27.811Z,8.60
2023-05-12T20:26:54.951Z,9.02
2023-05-12T20:29:22.329Z,7.43
2023-05-12T20:31:50.684Z,5.55
2023-05-12T20:34:18.691Z,7.47
2023-05-12T20:36:46.574Z,6.57
2023-05-12T20:39:15.233Z,8.68
2023-05-12T20:41:43.261Z,11.02
2023-05-12T20:44:10.900Z,7.80
2023-05-12T20:46:38.823Z,10.05
2023-05-12T20:49:06.290Z,7.00
2023-05-12T20:51:33.427Z,6.17
2023-05-12T20:54:00.725Z,7.00
2023-05-12T20:56:27.547Z,7.50
2023-05-12T20:58:54.597Z,7.03
2023-05-12T21:01:21.469Z,7.05
2023-05-12T21:03:48.551Z,5.70
2023-05-12T21:06:15.899Z,5.73
2023-05-12T21:08:42.982Z,5.37
2023-05-12T21:11:17.394Z,5.75
2023-05-12T21:13:45.592Z,5.10
2023-05-12T21:16:12.546Z,5.43
2023-05-12T21:18:39.697Z,4.87
2023-05-12T21:21:06.856Z,4.50
2023-05-12T21:23:34.890Z,4.83
2023-05-12T21:26:01.700Z,5.80
2023-05-12T21:28:28.673Z,4.97
2023-05-12T21:30:55.402Z,5.40
2023-05-12T21:33:22.584Z,5.20
2023-05-12T21:35:51.931Z,4.97
2023-05-12T21:38:20.739Z,5.03
2023-05-12T21:40:56.264Z,5.37
2023-05-12T21:43:23.421Z,5.53
2023-05-12T21:45:50.409Z,5.93
2023-05-12T21:48:18.441Z,6.10
2023-05-12T21:50:45.241Z,5.63
2023-05-12T21:53:12.618Z,6.03
2023-05-12T21:55:41.087Z,5.60
2023-05-12T21:58:08.157Z,6.73
2023-05-12T22:00:34.838Z,10.73
2023-05-12T22:03:01.954Z,12.30
2023-05-12T22:05:28.759Z,6.17
2023-05-12T22:07:56.011Z,6.53
2023-05-12T22:10:22.892Z,6.03
2023-05-12T22:12:50.034Z,5.30
2023-05-12T22:15:18.084Z,5.40
2023-05-12T22:17:48.574Z,7.70
2023-05-12T22:20:16.716Z,8.73
2023-05-12T22:22:43.958Z,9.43
2023-05-12T22:25:11.043Z,8.17
2023-05-12T22:27:38.052Z,7.07
2023-05-12T22:30:05.932Z,7.60
2023-05-12T22:32:33.186Z,8.50
2023-05-12T22:34:59.954Z,10.37
2023-05-12T22:37:27.076Z,13.03
2023-05-12T22:39:54.731Z,12.07
2023-05-12T22:42:22.827Z,11.50
2023-05-12T22:44:50.433Z,11.47
2023-05-12T22:47:17.670Z,10.77
2023-05-12T22:49:44.399Z,10.20
2023-05-12T22:52:11.447Z,9.83
2023-05-12T22:54:38.146Z,9.40
2023-05-12T22:57:05.176Z,10.53
2023-05-12T22:59:31.934Z,9.43
2023-05-12T23:01:58.917Z,7.80
2023-05-12T23:04:25.753Z,7.90
2023-05-12T23:06:52.803Z,7.50
2023-05-12T23:09:19.507Z,8.17
2023-05-12T23:11:46.548Z,8.00
2023-05-12T23:14:13.428Z,7.63
2023-05-12T23:16:41.219Z,8.33
2023-05-12T23:19:08.741Z,7.63
2023-05-12T23:21:36.487Z,6.93
2023-05-12T23:24:03.577Z,7.27
2023-05-12T23:26:30.604Z,6.30
2023-05-12T23:28:57.451Z,7.20
2023-05-12T23:31:24.494Z,6.60
2023-05-12T23:33:51.198Z,7.37
2023-05-12T23:36:18.429Z,7.40
2023-05-12T23:38:45.207Z,7.37
2023-05-12T23:41:12.186Z,8.30
2023-05-12T23:43:39.204Z,7.23
2023-05-12T23:46:06.682Z,8.30
2023-05-12T23:48:33.711Z,8.60
2023-05-12T23:51:00.713Z,8.40
2023-05-12T23:53:27.468Z,7.60
2023-05-12T23:55:54.558Z,8.50
2023-05-12T23:58:21.269Z,9.27
